Time;durP1;ratioP1;P1;durP2;ratioP2;P2;SDS_P1;SDS_P2;PMS_P1;PMS_P2;Temp;Humidity;BMP_temperature;BMP_pressure;BME280_temperature;BME280_humidity;BME280_pressure;Samples;Min_cycle;Max_cycle;Signal;HPM_P1;HPM_P2
2024/01/31 00:00:19;;;;;;;0.00;0.00;;;;;;;6.69;72.30;102214.69;6049105;23;20061;-74
2024/01/31 00:02:47;;;;;;;0.00;0.00;;;;;;;6.80;72.39;102235.06;6048340;23;20516;-73
2024/01/31 00:05:16;;;;;;;0.00;0.00;;;;;;;6.65;72.38;102213.41;6074304;23;20791;-75
2024/01/31 00:07:48;;;;;;;0.00;0.00;;;;;;;6.78;71.96;102227.09;6097878;23;20781;-75
2024/01/31 00:10:13;;;;;;;0.00;0.00;;;;;;;6.55;72.08;102185.72;6072983;23;20034;-75
2024/01/31 00:12:50;;;;;;;0.00;0.00;;;;;;;6.85;72.43;102239.91;6099054;23;20338;-75
2024/01/31 00:15:21;;;;;;;0.10;0.10;;;;;;;6.60;72.87;102184.09;6097636;23;20014;-74
2024/01/31 00:18:12;;;;;;;;;;;;;;;;;;;;;
2024/01/31 00:20:40;;;;;;;0.00;0.00;;;;;;;6.71;72.20;102184.59;6097551;23;20044;-74
2024/01/31 00:23:32;;;;;;;0.00;0.00;;;;;;;6.82;73.22;102198.47;6071897;23;20477;-76
2024/01/31 00:25:58;;;;;;;0.00;0.00;;;;;;;6.73;72.60;102187.94;6059116;23;20037;-74
2024/01/31 00:28:26;;;;;;;0.00;0.00;;;;;;;6.79;73.05;102201.59;6096224;23;19999;-75
2024/01/31 00:30:51;;;;;;;0.00;0.00;;;;;;;6.91;72.97;102217.38;6071817;23;20506;-74
2024/01/31 00:33:19;;;;;;;0.10;0.10;;;;;;;6.95;73.40;102224.94;6048059;23;20014;-74
2024/01/31 00:35:45;;;;;;;0.03;0.03;;;;;;;6.86;73.62;102198.91;6048060;23;20042;-74
2024/01/31 00:38:13;;;;;;;0.00;0.00;;;;;;;6.84;74.18;102194.75;6048489;23;20006;-74
2024/01/31 00:40:39;;;;;;;0.00;0.00;;;;;;;6.82;74.27;102197.66;6050710;23;20017;-73
2024/01/31 00:43:04;;;;;;;0.00;0.00;;;;;;;6.95;74.33;102200.47;6100250;23;20266;-73
2024/01/31 00:45:39;;;;;;;0.00;0.00;;;;;;;6.82;74.62;102176.72;6020472;23;20006;-73
2024/01/31 00:48:04;;;;;;;0.10;0.10;;;;;;;6.74;74.26;102168.72;6047985;23;20010;-73
2024/01/31 00:50:35;;;;;;;0.00;0.00;;;;;;;6.74;74.73;102157.84;6021692;23;20014;-74
2024/01/31 00:53:03;;;;;;;0.00;0.00;;;;;;;6.80;73.90;102150.75;6094530;23;20061;-75
2024/01/31 00:55:32;;;;;;;0.00;0.00;;;;;;;6.81;73.79;102149.75;6048305;23;20046;-74
2024/01/31 00:57:57;;;;;;;0.00;0.00;;;;;;;6.89;73.90;102159.63;6052911;23;20005;-74
2024/01/31 01:00:26;;;;;;;0.00;0.00;;;;;;;6.73;73.87;102128.13;6072855;23;20101;-73
2024/01/31 01:02:51;;;;;;;0.00;0.00;;;;;;;6.70;72.86;102136.69;6073596;23;20009;-74
2024/01/31 01:05:20;;;;;;;0.00;0.00;;;;;;;6.82;73.45;102149.53;6071025;23;20014;-75
2024/01/31 01:07:45;;;;;;;0.00;0.00;;;;;;;6.80;72.73;102156.19;6096038;23;20017;-75
2024/01/31 01:10:15;;;;;;;0.00;0.00;;;;;;;6.73;72.44;102145.31;6047461;23;20010;-74
2024/01/31 01:12:46;;;;;;;0.00;0.00;;;;;;;6.70;72.47;102156.56;6096439;23;20085;-74
2024/01/31 01:15:21;;;;;;;0.00;0.00;;;;;;;6.61;72.78;102136.00;6050818;23;20603;-74
2024/01/31 01:18:13;;;;;;;0.00;0.00;;;;;;;6.39;71.87;102099.88;6025285;23;20010;-75
2024/01/31 01:20:38;;;;;;;0.00;0.00;;;;;;;6.69;72.27;102145.88;6022953;23;20042;-75
2024/01/31 01:23:04;;;;;;;0.00;0.00;;;;;;;6.58;72.00;102128.22;6074898;23;20010;-75
2024/01/31 01:25:52;;;;;;;0.00;0.00;;;;;;;6.63;71.51;102144.81;6073080;23;20077;-74
2024/01/31 01:28:28;;;;;;;;;;;;;;;;;;;;;
2024/01/31 01:30:53;;;;;;;0.00;0.00;;;;;;;6.54;72.49;102151.41;6074736;23;20037;-75
2024/01/31 01:33:19;;;;;;;0.10;0.10;;;;;;;6.38;72.16;102123.50;6099920;23;20026;-75
2024/01/31 01:35:47;;;;;;;0.00;0.00;;;;;;;6.44;72.78;102124.59;6048681;23;20030;-76
2024/01/31 01:38:13;;;;;;;0.10;0.10;;;;;;;6.45;73.09;102121.69;6048046;23;20073;-75
2024/01/31 01:40:47;;;;;;;0.00;0.00;;;;;;;6.37;72.97;102110.09;6095214;23;20094;-74
2024/01/31 01:43:29;;;;;;;;;;;;;;;;;;;;;
2024/01/31 01:46:21;;;;;;;0.00;0.00;;;;;;;6.30;74.11;102093.75;6098108;23;20113;-76
2024/01/31 01:48:50;;;;;;;0.00;0.00;;;;;;;6.13;73.87;102074.16;6071752;23;20010;-75
2024/01/31 01:51:21;;;;;;;0.00;0.00;;;;;;;6.21;74.03;102086.78;6046543;23;20022;-75
2024/01/31 01:53:50;;;;;;;0.08;0.08;;;;;;;6.04;74.62;102065.31;6074788;23;20014;-74
2024/01/31 01:56:20;;;;;;;0.00;0.00;;;;;;;6.08;75.07;102072.03;6093800;23;20010;-72
2024/01/31 01:58:48;;;;;;;0.00;0.00;;;;;;;6.03;74.78;102058.22;6093369;23;20098;-75
2024/01/31 02:01:15;;;;;;;0.00;0.00;;;;;;;6.10;75.09;102080.84;6047771;23;20026;-73
2024/01/31 02:03:44;;;;;;;0.00;0.00;;;;;;;6.08;74.80;102077.47;6074330;23;20042;-75
2024/01/31 02:06:13;;;;;;;0.00;0.00;;;;;;;5.98;75.04;102060.66;6097842;23;20014;-74
2024/01/31 02:08:39;;;;;;;0.00;0.00;;;;;;;6.20;75.19;102101.38;6071841;23;19998;-73
2024/01/31 02:11:07;;;;;;;0.00;0.00;;;;;;;6.05;75.05;102077.84;6048856;23;20017;-75
2024/01/31 02:13:33;;;;;;;0.00;0.00;;;;;;;6.00;75.15;102074.91;6098427;23;20002;-75
2024/01/31 02:16:03;;;;;;;0.10;0.10;;;;;;;6.14;74.90;102091.31;6069829;23;20020;-73
2024/01/31 02:18:44;;;;;;;0.03;0.03;;;;;;;5.97;75.24;102069.84;6094690;23;20089;-74
2024/01/31 02:21:13;;;;;;;0.10;0.10;;;;;;;6.10;75.16;102105.28;6069699;23;20014;-74
2024/01/31 02:23:39;;;;;;;0.00;0.00;;;;;;;6.05;75.71;102096.88;6069050;23;20038;-75
2024/01/31 02:26:07;;;;;;;0.00;0.00;;;;;;;6.13;75.47;102104.03;6045118;23;20011;-74
2024/01/31 02:28:33;;;;;;;0.00;0.00;;;;;;;6.18;75.93;102106.19;6072874;23;20015;-73
2024/01/31 02:30:58;;;;;;;0.00;0.00;;;;;;;6.22;75.65;102104.72;6045759;23;20012;-73
2024/01/31 02:33:23;;;;;;;0.00;0.00;;;;;;;6.24;75.60;102114.38;6095111;23;20010;-73
2024/01/31 02:35:49;;;;;;;0.00;0.00;;;;;;;6.24;75.70;102103.50;6024272;23;20002;-74
2024/01/31 02:38:14;;;;;;;0.00;0.00;;;;;;;6.25;76.13;102104.34;6047212;23;20588;-75
2024/01/31 02:40:40;;;;;;;0.00;0.00;;;;;;;6.22;75.74;102093.88;6071862;23;20061;-75
2024/01/31 02:43:05;;;;;;;0.10;0.10;;;;;;;6.25;75.87;102104.34;6046160;23;20053;-75
2024/01/31 02:45:31;;;;;;;0.00;0.00;;;;;;;6.19;75.72;102091.53;6025203;23;20062;-74
2024/01/31 02:47:56;;;;;;;0.00;0.00;;;;;;;6.20;75.94;102093.25;6069518;23;20072;-76
2024/01/31 02:50:22;;;;;;;0.00;0.00;;;;;;;6.18;76.24;102087.16;6024467;23;20021;-74
2024/01/31 02:52:51;;;;;;;0.00;0.00;;;;;;;6.22;76.46;102077.56;6046478;23;20033;-74
2024/01/31 02:55:16;;;;;;;0.00;0.00;;;;;;;6.21;76.37;102076.75;6096792;23;20015;-74
2024/01/31 02:57:45;;;;;;;0.00;0.00;;;;;;;6.13;76.38;102067.88;6025066;23;20037;-76
2024/01/31 03:00:14;;;;;;;0.00;0.00;;;;;;;6.04;76.88;102059.03;6046839;23;20093;-75
2024/01/31 03:02:46;;;;;;;0.00;0.00;;;;;;;6.14;76.41;102073.13;6096498;23;20077;-75
2024/01/31 03:05:14;;;;;;;0.00;0.00;;;;;;;5.81;76.98;102021.22;6095872;23;20765;-75
2024/01/31 03:07:42;;;;;;;0.05;0.05;;;;;;;6.11;77.69;102073.53;6024411;23;20606;-74
2024/01/31 03:10:09;;;;;;;0.00;0.00;;;;;;;6.02;77.71;102067.38;6096207;23;20351;-74
2024/01/31 03:12:38;;;;;;;0.00;0.00;;;;;;;5.92;77.41;102047.84;6068516;23;20018;-75
2024/01/31 03:15:06;;;;;;;0.00;0.00;;;;;;;5.93;78.13;102046.81;6072593;23;20029;-74
2024/01/31 03:17:37;;;;;;;0.00;0.00;;;;;;;5.84;77.77;102031.66;6093394;23;20006;-75
2024/01/31 03:20:06;;;;;;;0.00;0.00;;;;;;;5.98;77.87;102049.78;6047763;23;20082;-74
2024/01/31 03:22:34;;;;;;;0.00;0.00;;;;;;;5.74;78.72;102019.28;6093465;23;20009;-73
2024/01/31 03:25:00;;;;;;;0.00;0.00;;;;;;;5.87;79.07;102025.84;6049215;23;20010;-75
2024/01/31 03:27:25;;;;;;;0.00;0.00;;;;;;;5.78;79.15;102003.44;6046497;23;20021;-75
2024/01/31 03:30:01;;;;;;;0.00;0.00;;;;;;;5.66;80.08;101986.81;6096160;23;20006;-77
2024/01/31 03:32:37;;;;;;;0.00;0.00;;;;;;;5.71;79.25;102003.38;6026391;23;20093;-75
2024/01/31 03:35:06;;;;;;;0.00;0.00;;;;;;;5.57;80.06;101977.16;6095208;23;20427;-74
2024/01/31 03:37:32;;;;;;;0.00;0.00;;;;;;;5.76;79.82;102003.63;6070765;23;20011;-75
2024/01/31 03:40:00;;;;;;;0.00;0.00;;;;;;;5.81;79.94;102007.63;6023340;23;20078;-74
2024/01/31 03:42:35;;;;;;;0.10;0.10;;;;;;;5.50;79.45;101968.09;6071075;23;20013;-74
2024/01/31 03:45:03;;;;;;;0.00;0.00;;;;;;;5.61;79.16;101989.31;6096892;23;20002;-74
2024/01/31 03:47:30;;;;;;;0.00;0.00;;;;;;;5.60;79.42;101996.59;6095927;23;20533;-75
2024/01/31 03:49:55;;;;;;;0.00;0.00;;;;;;;5.50;79.56;101981.69;6045786;23;19995;-75
2024/01/31 03:52:22;;;;;;;0.00;0.00;;;;;;;5.48;79.45;101987.28;6070879;23;20651;-74
2024/01/31 03:54:51;;;;;;;0.00;0.00;;;;;;;5.24;79.99;101958.66;6072578;23;20010;-75
2024/01/31 03:57:16;;;;;;;0.00;0.00;;;;;;;5.39;80.30;101981.16;6092315;23;20002;-74
2024/01/31 03:59:46;;;;;;;0.00;0.00;;;;;;;5.12;80.70;101946.66;6093934;23;20473;-74
2024/01/31 04:02:12;;;;;;;0.10;0.10;;;;;;;5.25;80.24;101973.91;6096146;23;20017;-74
2024/01/31 04:04:40;;;;;;;0.00;0.00;;;;;;;5.20;80.83;101968.25;6047443;23;20335;-75
2024/01/31 04:07:09;;;;;;;0.00;0.00;;;;;;;5.31;80.32;101984.00;6070013;23;20006;-73
2024/01/31 04:09:34;;;;;;;0.00;0.00;;;;;;;5.47;79.78;102011.91;6070701;23;20097;-74
2024/01/31 04:12:00;;;;;;;0.10;0.10;;;;;;;5.38;79.73;102005.78;6073977;23;20014;-74
2024/01/31 04:14:30;;;;;;;0.00;0.00;;;;;;;5.48;79.75;102006.28;6098089;23;20050;-75
2024/01/31 04:16:56;;;;;;;0.00;0.00;;;;;;;5.39;79.46;101986.59;6072125;23;20038;-74
2024/01/31 04:19:21;;;;;;;0.00;0.00;;;;;;;5.48;79.51;102008.19;6026784;23;20010;-74
2024/01/31 04:21:54;;;;;;;0.10;0.10;;;;;;;5.49;79.84;102007.13;6024047;23;20010;-75
2024/01/31 04:24:19;;;;;;;0.08;0.08;;;;;;;5.57;80.12;102018.69;6070994;23;20014;-73
2024/01/31 04:26:51;;;;;;;0.00;0.00;;;;;;;5.52;79.35;102006.72;6074126;23;20097;-74
2024/01/31 04:29:17;;;;;;;0.00;0.00;;;;;;;5.50;79.74;102008.81;6068004;23;20033;-74
2024/01/31 04:31:42;;;;;;;0.00;0.00;;;;;;;5.49;79.64;102015.25;6073919;23;20015;-74
2024/01/31 04:34:08;;;;;;;0.00;0.00;;;;;;;5.56;79.86;102025.16;6050504;23;20101;-74
2024/01/31 04:36:34;;;;;;;0.00;0.00;;;;;;;5.52;80.21;102023.00;6049595;23;20386;-74
2024/01/31 04:39:00;;;;;;;0.00;0.00;;;;;;;5.61;79.75;102040.88;6050084;23;20014;-74
2024/01/31 04:41:28;;;;;;;0.00;0.00;;;;;;;5.57;79.79;102031.44;6073329;23;20021;-74
2024/01/31 04:43:54;;;;;;;0.00;0.00;;;;;;;5.62;79.96;102034.38;6100555;23;20062;-74
2024/01/31 04:46:22;;;;;;;0.10;0.10;;;;;;;5.72;78.93;102040.34;6069970;23;20426;-74
2024/01/31 04:48:55;;;;;;;0.00;0.00;;;;;;;5.73;79.58;102042.03;6073930;23;20011;-73
2024/01/31 04:51:25;;;;;;;0.00;0.00;;;;;;;5.62;79.10;102023.53;6095036;23;20017;-73
2024/01/31 04:53:51;;;;;;;0.00;0.00;;;;;;;5.67;79.12;102031.94;6099035;23;20062;-74
2024/01/31 04:56:24;;;;;;;0.00;0.00;;;;;;;5.67;79.07;102031.94;6095621;23;20014;-74
2024/01/31 04:58:50;;;;;;;0.00;0.00;;;;;;;5.72;79.38;102032.22;6096753;23;20038;-74
2024/01/31 05:01:25;;;;;;;;;;;;;;;;;;;;;
2024/01/31 05:04:02;;;;;;;;;;;;;;;;;;;;;
2024/01/31 05:06:27;;;;;;;0.00;0.00;;;;;;;5.59;79.93;102013.06;6099653;23;20041;-74
2024/01/31 05:08:56;;;;;;;0.00;0.00;;;;;;;5.75;79.63;102034.53;6076440;23;20002;-75
2024/01/31 05:11:39;;;;;;;0.10;0.10;;;;;;;5.84;79.18;102042.53;6072148;23;20014;-73
2024/01/31 05:14:04;;;;;;;0.00;0.00;;;;;;;5.79;79.34;102034.16;6048965;23;20010;-75
2024/01/31 05:16:36;;;;;;;0.10;0.10;;;;;;;5.81;79.70;102026.63;6047838;23;20014;-76
2024/01/31 05:19:01;;;;;;;0.00;0.00;;;;;;;5.85;79.53;102033.38;6026552;23;20010;-75
2024/01/31 05:21:30;;;;;;;0.00;0.00;;;;;;;5.85;79.26;102030.66;6048907;23;20013;-75
2024/01/31 05:23:55;;;;;;;0.00;0.00;;;;;;;5.82;79.33;102022.91;6100737;23;20002;-75
2024/01/31 05:26:23;;;;;;;0.00;0.00;;;;;;;5.91;80.27;102032.56;6047905;23;20060;-74
2024/01/31 05:28:49;;;;;;;0.00;0.00;;;;;;;5.78;79.55;102011.56;6048272;23;20014;-74
2024/01/31 05:31:35;;;;;;;0.10;0.10;;;;;;;5.75;79.70;102001.09;6070780;23;20089;-74
2024/01/31 05:34:10;;;;;;;0.00;0.00;;;;;;;5.80;79.16;102014.94;6071432;23;20006;-75
2024/01/31 05:36:35;;;;;;;0.00;0.00;;;;;;;5.66;78.90;101981.41;6050778;23;20011;-75
2024/01/31 05:39:01;;;;;;;0.00;0.00;;;;;;;5.63;79.12;101970.94;6096501;23;19987;-76
2024/01/31 05:41:33;;;;;;;0.00;0.00;;;;;;;5.74;79.10;101988.59;6070265;23;20096;-74
2024/01/31 05:44:12;;;;;;;0.00;0.00;;;;;;;5.55;78.85;101960.25;6071980;23;20002;-74
2024/01/31 05:46:49;;;;;;;0.00;0.00;;;;;;;5.84;79.32;102004.53;6047934;23;20032;-73
2024/01/31 05:49:15;;;;;;;0.00;0.00;;;;;;;5.91;78.07;102002.72;6049016;23;20008;-75
2024/01/31 05:51:53;;;;;;;;;;;;;;;;;;;;;
2024/01/31 05:54:21;;;;;;;0.00;0.00;;;;;;;5.92;78.25;102001.69;6098453;23;20034;-77
2024/01/31 05:56:46;;;;;;;0.00;0.00;;;;;;;5.72;78.61;101967.06;6071627;23;20085;-73
2024/01/31 05:59:22;;;;;;;;;;;;;;;;;;;;;
2024/01/31 06:01:47;;;;;;;0.00;0.00;;;;;;;5.91;77.82;101979.13;6096775;23;20627;-76
2024/01/31 06:04:14;;;;;;;0.00;0.00;;;;;;;5.80;78.16;101943.50;6025357;23;20037;-74
2024/01/31 06:07:00;;;;;;;0.00;0.00;;;;;;;5.98;78.02;101973.75;6049053;23;20010;-74
2024/01/31 06:09:31;;;;;;;0.00;0.00;;;;;;;5.87;77.24;101955.25;6097248;23;20010;-73
2024/01/31 06:12:33;;;;;;;;;;;;;;;;;;;;;
2024/01/31 06:14:58;;;;;;;0.00;0.00;;;;;;;5.92;77.48;101958.22;6010417;23;20395;-72
2024/01/31 06:17:27;;;;;;;0.00;0.00;;;;;;;5.85;77.96;101962.78;6037105;23;20026;-73
2024/01/31 06:19:54;;;;;;;0.00;0.00;;;;;;;5.89;78.11;101959.47;6047704;23;20010;-74
2024/01/31 06:22:20;;;;;;;0.00;0.00;;;;;;;5.73;77.98;101933.44;6098199;23;20006;-71
2024/01/31 06:24:48;;;;;;;0.00;0.00;;;;;;;5.85;78.11;101946.47;6095202;23;20065;-72
2024/01/31 06:27:17;;;;;;;0.00;0.00;;;;;;;5.84;76.99;101939.38;6095160;23;20003;-74
2024/01/31 06:29:50;;;;;;;0.00;0.00;;;;;;;5.70;76.90;101922.16;6095750;23;20006;-74
2024/01/31 06:32:31;;;;;;;;;;;;;;;;;;;;;
2024/01/31 06:35:00;;;;;;;0.00;0.00;;;;;;;5.75;76.68;101939.53;6096115;23;20065;-75
2024/01/31 06:37:35;;;;;;;0.00;0.00;;;;;;;5.86;76.60;101959.03;6071290;23;20263;-74
2024/01/31 06:40:00;;;;;;;0.00;0.00;;;;;;;5.89;76.35;101958.63;6081567;23;20066;-75
2024/01/31 06:42:33;;;;;;;0.00;0.00;;;;;;;5.68;76.25;101933.22;6078719;23;20010;-75
2024/01/31 06:45:04;;;;;;;0.00;0.00;;;;;;;5.68;76.58;101930.50;6056610;23;20014;-75
2024/01/31 06:47:30;;;;;;;0.00;0.00;;;;;;;5.66;77.25;101915.44;6058060;23;20101;-74
2024/01/31 06:49:57;;;;;;;0.10;0.10;;;;;;;5.63;77.50;101921.25;6075006;23;20010;-75
2024/01/31 06:52:25;;;;;;;0.00;0.00;;;;;;;5.75;76.81;101941.38;6096255;23;20007;-76
2024/01/31 06:54:51;;;;;;;0.00;0.00;;;;;;;5.64;76.33;101934.63;6095711;23;20326;-74
2024/01/31 06:57:19;;;;;;;0.10;0.10;;;;;;;5.65;76.27;101928.19;6021366;23;20002;-76
2024/01/31 06:59:44;;;;;;;0.00;0.00;;;;;;;5.63;76.23;101922.09;6093031;23;20384;-75
2024/01/31 07:02:52;;;;;;;;;;;;;;;;;;;;;
2024/01/31 07:05:19;;;;;;;0.00;0.00;;;;;;;5.57;76.87;101912.84;6067294;23;20367;-73
2024/01/31 07:07:48;;;;;;;0.00;0.00;;;;;;;5.68;77.01;101937.78;6073216;23;20007;-75
2024/01/31 07:10:16;;;;;;;0.00;0.00;;;;;;;5.74;76.26;101939.72;6069355;23;20006;-76
2024/01/31 07:15:51;;;;;;;;;;;;;;;;;;;;;
2024/01/31 07:18:17;;;;;;;0.00;0.00;;;;;;;5.66;75.31;101908.13;6096546;23;20082;-74
2024/01/31 07:21:17;;;;;;;0.00;0.00;;;;;;;5.57;75.29;101895.75;6099072;23;20010;-77
2024/01/31 07:24:13;;;;;;;0.00;0.00;;;;;;;5.66;76.13;101905.41;6071708;23;20039;-75
2024/01/31 08:47:24;;;;;;;0.10;0.10;;;;;;;5.80;78.75;101889.22;5713089;25;20035;-72
2024/01/31 08:49:57;;;;;;;0.00;0.00;;;;;;;5.87;77.82;101879.22;5810370;24;20296;-74
2024/01/31 08:52:32;;;;;;;;;;;;;;;;;;;;;
2024/01/31 08:54:59;;;;;;;0.00;0.00;;;;;;;5.83;77.76;101858.97;6093676;23;20054;-73
2024/01/31 08:57:56;;;;;;;0.00;0.00;;;;;;;5.93;77.88;101856.75;6070441;23;20034;-75
2024/01/31 09:00:32;;;;;;;0.00;0.00;;;;;;;5.94;77.77;101842.97;5959235;24;20004;-74
2024/01/31 09:03:00;;;;;;;0.00;0.00;;;;;;;6.16;77.10;101866.50;6097906;23;20010;-74
2024/01/31 09:05:27;;;;;;;0.00;0.00;;;;;;;6.35;76.66;101898.38;6098394;23;20006;-75
2024/01/31 09:08:02;;;;;;;0.00;0.00;;;;;;;6.37;76.22;101890.84;6070202;23;20425;-74
2024/01/31 09:10:28;;;;;;;0.00;0.00;;;;;;;6.23;76.24;101842.91;6073093;23;20002;-74
2024/01/31 09:13:19;;;;;;;0.00;0.00;;;;;;;6.54;76.17;101885.03;6064920;23;20398;-75
2024/01/31 09:15:44;;;;;;;0.00;0.00;;;;;;;6.70;76.15;101884.69;6076862;23;20057;-73
2024/01/31 09:18:10;;;;;;;0.10;0.10;;;;;;;6.71;75.85;101859.16;6069614;23;20363;-74
2024/01/31 09:20:36;;;;;;;0.00;0.00;;;;;;;6.88;75.17;101873.25;6027669;23;20014;-74
2024/01/31 09:23:01;;;;;;;0.00;0.00;;;;;;;6.92;74.71;101858.19;6070274;23;20065;-74
2024/01/31 09:25:27;;;;;;;0.00;0.00;;;;;;;7.08;74.26;101859.69;6026839;23;20061;-73
2024/01/31 09:27:55;;;;;;;0.00;0.00;;;;;;;7.08;73.60;101845.22;6047567;23;20055;-74
2024/01/31 09:30:23;;;;;;;0.00;0.00;;;;;;;7.11;73.20;101856.53;6026703;23;20438;-74
2024/01/31 09:32:50;;;;;;;0.00;0.00;;;;;;;7.15;73.25;101852.38;6048250;23;20010;-74
2024/01/31 09:35:16;;;;;;;0.00;0.00;;;;;;;7.12;73.23;101839.16;6047616;23;20177;-75
2024/01/31 09:37:41;;;;;;;0.00;0.00;;;;;;;7.23;72.91;101856.75;6097233;23;20006;-74
2024/01/31 09:40:07;;;;;;;0.00;0.00;;;;;;;7.46;72.82;101872.66;6046523;23;20049;-74
2024/01/31 09:42:33;;;;;;;0.00;0.00;;;;;;;7.51;72.72;101875.59;6047479;23;20017;-72
2024/01/31 09:45:00;;;;;;;0.00;0.00;;;;;;;7.44;71.92;101891.06;6047887;23;20073;-73
2024/01/31 09:47:30;;;;;;;0.00;0.00;;;;;;;7.63;72.09;101888.56;6071616;23;20010;-74
2024/01/31 09:49:56;;;;;;;0.00;0.00;;;;;;;7.75;71.20;101886.88;6097725;23;20017;-74
2024/01/31 09:52:29;;;;;;;0.00;0.00;;;;;;;7.76;71.26;101877.66;6024231;23;20010;-73
2024/01/31 09:54:58;;;;;;;0.00;0.00;;;;;;;7.76;70.94;101883.09;6074975;23;20430;-73
2024/01/31 09:57:27;;;;;;;0.00;0.00;;;;;;;7.82;71.10;101887.69;6099518;23;20013;-74
2024/01/31 09:59:56;;;;;;;0.00;0.00;;;;;;;7.85;71.36;101892.72;6071785;23;20011;-74
2024/01/31 10:02:22;;;;;;;0.00;0.00;;;;;;;7.88;71.12;101902.34;6071409;23;20311;-73
2024/01/31 10:04:50;;;;;;;0.00;0.00;;;;;;;7.88;70.70;101896.09;6098143;23;19986;-73
2024/01/31 10:07:31;;;;;;;0.00;0.00;;;;;;;7.86;71.20;101893.56;6046168;23;20030;-73
2024/01/31 10:09:57;;;;;;;0.00;0.00;;;;;;;7.79;71.17;101887.28;6073863;23;20013;-74
2024/01/31 10:12:23;;;;;;;0.00;0.00;;;;;;;7.73;71.92;101872.63;6061526;23;20379;-75
2024/01/31 10:14:51;;;;;;;0.00;0.00;;;;;;;7.91;71.95;101891.03;6068932;23;20038;-73
2024/01/31 10:17:17;;;;;;;0.00;0.00;;;;;;;7.90;71.94;101877.63;6040400;23;20050;-74
2024/01/31 10:19:43;;;;;;;0.00;0.00;;;;;;;7.98;71.39;101885.59;5996245;23;20449;-74
2024/01/31 10:22:11;;;;;;;0.00;0.00;;;;;;;7.94;71.61;101868.81;6020102;23;20011;-74
2024/01/31 10:24:38;;;;;;;0.00;0.00;;;;;;;7.98;71.78;101874.69;6043903;23;20014;-74
2024/01/31 10:27:06;;;;;;;0.00;0.00;;;;;;;7.96;72.02;101864.00;6042659;23;19999;-74
2024/01/31 10:29:35;;;;;;;0.00;0.00;;;;;;;7.99;71.88;101865.47;6065464;23;20014;-72
2024/01/31 10:32:03;;;;;;;0.10;0.10;;;;;;;7.97;71.71;101843.91;6043529;23;20013;-74
2024/01/31 10:34:29;;;;;;;0.00;0.00;;;;;;;8.07;71.42;101854.31;6016305;23;20018;-76
2024/01/31 10:36:55;;;;;;;0.00;0.00;;;;;;;8.12;71.21;101876.34;6066004;23;20006;-74
2024/01/31 10:39:21;;;;;;;0.00;0.00;;;;;;;8.12;71.67;101860.00;6040192;23;20014;-74
2024/01/31 10:41:47;;;;;;;0.10;0.10;;;;;;;8.20;70.97;101872.53;6042993;23;20058;-74
2024/01/31 10:44:14;;;;;;;0.00;0.00;;;;;;;8.14;70.90;101857.88;6041431;23;20022;-73
2024/01/31 10:46:41;;;;;;;0.00;0.00;;;;;;;8.24;71.05;101868.31;6019128;23;20025;-75
2024/01/31 10:49:06;;;;;;;0.00;0.00;;;;;;;8.06;71.13;101870.88;6022445;23;20028;-73
2024/01/31 10:51:34;;;;;;;0.00;0.00;;;;;;;8.12;71.58;101875.47;6044503;23;20078;-74
2024/01/31 10:54:03;;;;;;;0.00;0.00;;;;;;;8.17;72.02;101879.25;6043475;23;20010;-74
2024/01/31 10:56:30;;;;;;;0.00;0.00;;;;;;;8.19;71.62;101870.84;6043066;23;20041;-74
2024/01/31 10:58:58;;;;;;;0.00;0.00;;;;;;;8.26;71.19;101859.94;5997435;23;20014;-74
2024/01/31 11:01:30;;;;;;;0.00;0.00;;;;;;;8.26;71.77;101854.47;6020005;23;20022;-74
2024/01/31 11:03:56;;;;;;;0.00;0.00;;;;;;;8.33;71.29;101850.66;6041862;23;20010;-74
2024/01/31 11:06:27;;;;;;;0.00;0.00;;;;;;;8.29;71.72;101837.69;6017387;23;20022;-75
2024/01/31 11:08:55;;;;;;;0.00;0.00;;;;;;;8.23;71.68;101833.94;5996996;23;20094;-74
2024/01/31 11:11:20;;;;;;;0.03;0.03;;;;;;;8.40;71.78;101850.66;6066224;23;20018;-74
2024/01/31 11:13:46;;;;;;;0.00;0.00;;;;;;;8.50;72.16;101851.06;6094059;23;20014;-75
2024/01/31 11:16:26;;;;;;;0.00;0.00;;;;;;;8.55;71.83;101834.88;6098349;23;20010;-74
2024/01/31 11:18:52;;;;;;;0.00;0.00;;;;;;;8.77;71.28;101840.00;6072043;23;20002;-74
2024/01/31 11:21:18;;;;;;;0.00;0.00;;;;;;;8.63;71.68;101838.41;6052228;23;20010;-75
2024/01/31 11:23:46;;;;;;;0.00;0.00;;;;;;;8.43;71.90;101822.97;6099344;23;20009;-73
2024/01/31 11:26:12;;;;;;;0.00;0.00;;;;;;;8.44;72.72;101824.66;6101356;23;20010;-74
2024/01/31 11:28:43;;;;;;;0.00;0.00;;;;;;;8.58;72.62;101792.69;6071440;23;20010;-74
2024/01/31 11:31:10;;;;;;;0.00;0.00;;;;;;;8.99;71.84;101804.19;6097126;23;20015;-74
2024/01/31 11:33:39;;;;;;;0.00;0.00;;;;;;;9.43;70.50;101788.66;6074588;23;20093;-74
2024/01/31 11:36:08;;;;;;;0.00;0.00;;;;;;;9.73;69.22;101786.06;6077755;23;20013;-77
2024/01/31 11:38:34;;;;;;;0.00;0.00;;;;;;;9.90;69.32;101769.91;6028078;23;20086;-77
2024/01/31 11:41:05;;;;;;;0.00;0.00;;;;;;;10.03;68.93;101779.84;6017852;23;20011;-77
2024/01/31 11:43:31;;;;;;;0.00;0.00;;;;;;;9.90;68.68;101749.91;6017535;23;20005;-76
2024/01/31 11:45:59;;;;;;;0.00;0.00;;;;;;;9.80;68.99;101750.47;5968169;23;20007;-77
2024/01/31 11:48:25;;;;;;;0.00;0.00;;;;;;;9.68;69.15;101755.88;5994032;23;20099;-76
2024/01/31 11:50:53;;;;;;;0.00;0.00;;;;;;;9.67;70.12;101735.06;6017762;23;20026;-78
2024/01/31 11:53:22;;;;;;;0.00;0.00;;;;;;;9.71;70.16;101729.97;6018880;23;20019;-77
2024/01/31 11:56:08;;;;;;;0.00;0.00;;;;;;;9.78;70.01;101725.25;5992658;23;20018;-79
2024/01/31 11:58:37;;;;;;;0.00;0.00;;;;;;;9.89;70.69;101743.63;6008828;23;20094;-77
2024/01/31 12:01:05;;;;;;;0.00;0.00;;;;;;;9.85;70.79;101720.56;5996700;23;20011;-78
2024/01/31 12:03:31;;;;;;;0.00;0.00;;;;;;;9.96;70.87;101716.22;5990690;23;20052;-78
2024/01/31 12:05:57;;;;;;;0.00;0.00;;;;;;;10.28;71.09;101718.75;5994657;23;20057;-77
2024/01/31 12:08:30;;;;;;;0.00;0.00;;;;;;;10.60;69.88;101694.72;6013845;23;20155;-77
2024/01/31 12:10:56;;;;;;;0.00;0.00;;;;;;;11.14;68.57;101751.28;6023831;23;20011;-75
2024/01/31 12:13:22;;;;;;;0.00;0.00;;;;;;;11.19;68.33;101724.03;6077135;23;20032;-77
2024/01/31 12:15:59;;;;;;;0.00;0.00;;;;;;;11.42;67.55;101734.13;6075421;23;20010;-78
2024/01/31 12:18:28;;;;;;;0.00;0.00;;;;;;;12.09;67.48;101710.03;6073842;23;20006;-76
2024/01/31 12:23:49;;;;;;;0.00;0.00;;;;;;;12.32;65.56;101742.84;6091343;23;20002;-77
2024/01/31 12:26:19;;;;;;;0.00;0.00;;;;;;;11.64;67.26;101693.25;6101370;23;20006;-77
2024/01/31 12:29:23;;;;;;;0.00;0.00;;;;;;;11.02;71.21;101739.50;6102002;23;20444;-77
2024/01/31 12:31:48;;;;;;;0.00;0.00;;;;;;;10.38;73.87;101726.38;5989707;23;20015;-79
2024/01/31 12:34:24;;;;;;;;;;;;;;;;;;;;;
2024/01/31 12:37:00;;;;;;;0.00;0.00;;;;;;;10.04;76.43;101699.50;6012151;23;20086;-78
2024/01/31 12:39:37;;;;;;;0.00;0.00;;;;;;;10.27;77.24;101720.63;6036629;23;20010;-78
2024/01/31 12:42:03;;;;;;;0.00;0.00;;;;;;;10.31;77.27;101685.47;6100834;23;20378;-78
2024/01/31 12:44:32;;;;;;;0.00;0.00;;;;;;;10.35;76.92;101674.91;6098605;23;20033;-77
2024/01/31 12:47:06;;;;;;;0.00;0.00;;;;;;;10.60;76.66;101681.03;6050664;23;20073;-77
2024/01/31 12:49:39;;;;;;;0.00;0.00;;;;;;;10.56;76.23;101666.16;6075932;23;20013;-79
2024/01/31 12:52:08;;;;;;;0.00;0.00;;;;;;;10.53;76.51;101682.19;6101772;23;20002;-77
2024/01/31 12:54:33;;;;;;;0.00;0.00;;;;;;;10.21;77.72;101679.72;6052325;23;20041;-76
2024/01/31 12:56:59;;;;;;;0.00;0.00;;;;;;;10.09;79.66;101687.84;6098841;23;20498;-76
2024/01/31 12:59:51;;;;;;;0.00;0.00;;;;;;;9.70;81.07;101654.56;6051038;23;20068;-76
2024/01/31 13:02:17;;;;;;;0.00;0.00;;;;;;;9.70;83.58;101681.88;6072068;23;20004;-77
2024/01/31 13:04:53;;;;;;;0.00;0.00;;;;;;;9.55;83.85;101658.53;6098328;23;20077;-77
2024/01/31 13:07:19;;;;;;;0.00;0.00;;;;;;;9.57;85.69;101675.50;6096979;23;20102;-75
2024/01/31 13:09:44;;;;;;;0.00;0.00;;;;;;;9.49;85.77;101644.94;6095956;23;20002;-76
2024/01/31 13:12:11;;;;;;;0.00;0.00;;;;;;;9.53;86.39;101663.38;6046482;23;20026;-76
2024/01/31 13:14:39;;;;;;;0.00;0.00;;;;;;;9.57;87.82;101631.00;6025661;23;20069;-76
2024/01/31 13:17:13;;;;;;;0.00;0.00;;;;;;;9.64;88.01;101631.75;6102689;23;20002;-77
2024/01/31 13:19:38;;;;;;;0.00;0.00;;;;;;;9.86;87.60;101626.59;6076973;23;20013;-75
2024/01/31 13:22:03;;;;;;;0.00;0.00;;;;;;;10.03;87.14;101615.00;6100724;23;20003;-75
2024/01/31 13:24:31;;;;;;;0.00;0.00;;;;;;;10.06;87.35;101617.28;6101525;23;20449;-75
2024/01/31 13:26:58;;;;;;;0.00;0.00;;;;;;;9.93;87.78;101604.66;6077195;23;20010;-76